< Typhoon 197010 1970 Season Typhoon 197012 >
Typhoon 197011 (BILLIE)
General InformationTrack Information on Google Maps || Disaster Info.ResourceGoogle EarthGE AnimationAtom FeedGeoJSON
Detalied Best Track (Time Zone = UTC)
Year Month Day Hour Lat. Long. Pressure (hPa) Wind (kt) Class Image Chart
1970 8 21 00 15.0 138.0 1008 0 2 -- Chart
1970 8 21 06 15.0 137.5 1008 0 2 -- Chart
1970 8 21 12 15.0 137.0 1008 0 2 -- Chart
1970 8 21 18 15.0 136.6 1008 0 2 -- Chart
1970 8 22 00 15.0 136.0 1007 0 2 -- Chart
1970 8 22 06 15.0 135.0 1004 0 2 -- Chart
1970 8 22 12 15.2 134.0 1004 0 2 -- Chart
1970 8 22 18 15.2 133.0 1004 0 2 -- Chart
1970 8 23 00 15.3 132.0 1002 0 2 -- Chart
1970 8 23 06 15.7 131.8 1000 0 2 -- Chart
1970 8 23 12 16.0 131.7 995 0 2 -- Chart
1970 8 23 18 16.1 131.7 990 0 2 -- Chart
1970 8 24 00 16.5 131.3 990 0 2 -- Chart
1970 8 24 06 17.0 131.0 985 0 9 -- Chart
1970 8 24 12 17.4 131.0 975 0 9 -- Chart
1970 8 24 18 18.4 131.5 970 0 9 -- Chart
1970 8 25 00 18.8 131.6 965 0 9 -- Chart
1970 8 25 06 19.4 131.7 965 0 9 -- Chart
1970 8 25 12 20.4 132.0 960 0 9 -- Chart
1970 8 25 18 21.3 132.2 960 0 9 -- Chart
1970 8 26 00 22.1 132.2 955 0 9 -- Chart
1970 8 26 06 23.0 132.2 960 0 9 -- Chart
1970 8 26 12 23.7 132.2 960 0 9 -- Chart
1970 8 26 18 24.4 132.3 955 0 9 -- Chart
1970 8 27 00 25.4 132.1 950 0 9 -- Chart
1970 8 27 06 26.4 131.7 950 0 9 -- Chart
1970 8 27 12 27.0 131.0 945 0 9 -- Chart
1970 8 27 18 27.5 130.2 945 0 9 -- Chart
1970 8 28 00 27.9 129.6 945 0 9 -- Chart
1970 8 28 06 28.4 128.8 945 0 9 -- Chart
1970 8 28 12 28.9 128.2 950 0 9 -- Chart
1970 8 28 18 29.3 127.7 955 0 9 -- Chart
1970 8 29 00 29.7 127.4 950 0 9 -- Chart
1970 8 29 06 30.2 127.0 950 0 9 -- Chart
1970 8 29 12 31.0 126.8 955 0 9 -- Chart
1970 8 29 18 31.6 126.7 960 0 9 -- Chart
1970 8 30 00 32.5 126.3 960 0 9 -- Chart
1970 8 30 06 33.5 126.1 965 0 9 -- Chart
1970 8 30 12 34.4 125.6 970 0 9 -- Chart
1970 8 30 18 35.4 125.1 975 0 9 -- Chart
1970 8 31 00 36.5 125.0 980 0 9 -- Chart
1970 8 31 06 37.7 125.3 985 0 9 -- Chart
1970 8 31 12 39.6 126.5 990 0 9 -- Chart
1970 8 31 18 41.4 128.4 994 0 6 -- Chart
1970 9 1 00 44.3 131.0 996 0 6 -- Chart
Japan Meteorological Agency Best Track Data | Correction Date : 1989-06-01
< Typhoon 197010 1970 Season Typhoon 197012 >

Help